CFGMU CYXU-CYOO
Flight info
| Callsign | CFGMU |
|---|---|
| Flight time | 0h 40m |
| Altitude | 3000 |
| Route | VFR |
| Aircraft |
Departure
| Time | 2026-05-05 00:31 |
|---|---|
| Airport | London International Airport (CYXU) |
Arrival
| Time | 2026-05-05 01:11 |
|---|---|
| Airport | Oshawa Executive Airport (CYOO) |
| Time | Latitude | Longitude | Altitude | Speed | Heading |
|---|---|---|---|---|---|
| 2026-05-05 00:25 | 43.03399 | -81.15412 | 903 ft | 9 kts | 21° |
| 2026-05-05 00:26 | 43.03419 | -81.15392 | 903 ft | 0 kts | 49° |
| 2026-05-05 00:26 | 43.03450 | -81.15384 | 903 ft | 7 kts | 313° |
| 2026-05-05 00:26 | 43.03506 | -81.15395 | 903 ft | 7 kts | 39° |
| 2026-05-05 00:27 | 43.03540 | -81.15342 | 903 ft | 4 kts | 49° |
| 2026-05-05 00:27 | 43.03542 | -81.15339 | 903 ft | 0 kts | 49° |
| 2026-05-05 00:28 | 43.03544 | -81.15336 | 903 ft | 4 kts | 49° |
| 2026-05-05 00:28 | 43.03546 | -81.15333 | 903 ft | 0 kts | 49° |
| 2026-05-05 00:28 | 43.03548 | -81.15330 | 903 ft | 0 kts | 49° |
| 2026-05-05 00:29 | 43.03554 | -81.15320 | 903 ft | 8 kts | 50° |
| 2026-05-05 00:29 | 43.03587 | -81.15267 | 904 ft | 6 kts | 51° |
| 2026-05-05 00:29 | 43.03585 | -81.15229 | 904 ft | 3 kts | 139° |
| 2026-05-05 00:29 | 43.03577 | -81.15220 | 904 ft | 0 kts | 139° |
| 2026-05-05 00:30 | 43.03480 | -81.15105 | 904 ft | 62 kts | 137° |
| 2026-05-05 00:30 | 43.02991 | -81.14496 | 1003 ft | 116 kts | 142° |
| 2026-05-05 00:30 | 43.02306 | -81.13746 | 1272 ft | 133 kts | 148° |
| 2026-05-05 00:31 | 43.01587 | -81.12973 | 1804 ft | 135 kts | 148° |
| 2026-05-05 00:31 | 43.01078 | -81.11769 | 2287 ft | 166 kts | 117° |
| 2026-05-05 00:31 | 43.01102 | -81.10065 | 2709 ft | 192 kts | 84° |
| 2026-05-05 00:31 | 43.01559 | -81.08297 | 3109 ft | 201 kts | 74° |
| 2026-05-05 00:32 | 43.02086 | -81.06497 | 3489 ft | 206 kts | 73° |
| 2026-05-05 00:32 | 43.02624 | -81.04651 | 3770 ft | 211 kts | 73° |
| 2026-05-05 00:32 | 43.03158 | -81.02816 | 4239 ft | 203 kts | 76° |
| 2026-05-05 00:32 | 43.03415 | -81.00959 | 4649 ft | 200 kts | 91° |
| 2026-05-05 00:33 | 43.03543 | -80.99068 | 5010 ft | 204 kts | 90° |
| 2026-05-05 00:33 | 43.03762 | -80.97128 | 5377 ft | 208 kts | 85° |
| 2026-05-05 00:33 | 43.04040 | -80.95183 | 5765 ft | 209 kts | 83° |
| 2026-05-05 00:33 | 43.04313 | -80.93239 | 6142 ft | 208 kts | 83° |
| 2026-05-05 00:34 | 43.04578 | -80.91289 | 6503 ft | 209 kts | 83° |
| 2026-05-05 00:34 | 43.04841 | -80.89336 | 6864 ft | 210 kts | 83° |
| 2026-05-05 00:34 | 43.05107 | -80.87366 | 7228 ft | 211 kts | 82° |
| 2026-05-05 00:34 | 43.05375 | -80.85376 | 7528 ft | 219 kts | 82° |
| 2026-05-05 00:35 | 43.05658 | -80.83251 | 7545 ft | 234 kts | 82° |
| 2026-05-05 00:35 | 43.05958 | -80.81023 | 7648 ft | 238 kts | 82° |
| 2026-05-05 00:35 | 43.06258 | -80.78809 | 7906 ft | 236 kts | 81° |
| 2026-05-05 00:35 | 43.06554 | -80.76607 | 8158 ft | 235 kts | 81° |
| 2026-05-05 00:36 | 43.06848 | -80.74407 | 8418 ft | 235 kts | 81° |
| 2026-05-05 00:36 | 43.07141 | -80.72211 | 8675 ft | 235 kts | 81° |
| 2026-05-05 00:36 | 43.07435 | -80.70005 | 8933 ft | 236 kts | 81° |
| 2026-05-05 00:36 | 43.07731 | -80.67792 | 9194 ft | 237 kts | 80° |
| 2026-05-05 00:37 | 43.08281 | -80.63652 | 9542 ft | 245 kts | 80° |
| 2026-05-05 00:37 | 43.08590 | -80.61318 | 9554 ft | 253 kts | 80° |
| 2026-05-05 00:37 | 43.08905 | -80.58932 | 9563 ft | 257 kts | 80° |
| 2026-05-05 00:38 | 43.09223 | -80.56525 | 9556 ft | 258 kts | 80° |
| 2026-05-05 00:38 | 43.09543 | -80.54107 | 9556 ft | 258 kts | 80° |
| 2026-05-05 00:38 | 43.09861 | -80.51692 | 9547 ft | 258 kts | 80° |
| 2026-05-05 00:38 | 43.10179 | -80.49275 | 9548 ft | 258 kts | 80° |
| 2026-05-05 00:39 | 43.10493 | -80.46886 | 9552 ft | 258 kts | 80° |
| 2026-05-05 00:39 | 43.10813 | -80.44440 | 9553 ft | 258 kts | 80° |
| 2026-05-05 00:39 | 43.11126 | -80.42052 | 9547 ft | 258 kts | 80° |
| 2026-05-05 00:39 | 43.11442 | -80.39639 | 9547 ft | 258 kts | 80° |
| 2026-05-05 00:40 | 43.11756 | -80.37224 | 9543 ft | 258 kts | 80° |
| 2026-05-05 00:40 | 43.12068 | -80.34810 | 9543 ft | 258 kts | 80° |
| 2026-05-05 00:40 | 43.12378 | -80.32395 | 9541 ft | 258 kts | 80° |
| 2026-05-05 00:40 | 43.12687 | -80.29973 | 9546 ft | 258 kts | 81° |
| 2026-05-05 00:41 | 43.12993 | -80.27556 | 9546 ft | 258 kts | 81° |
| 2026-05-05 00:41 | 43.13296 | -80.25143 | 9545 ft | 257 kts | 81° |
| 2026-05-05 00:41 | 43.13597 | -80.22728 | 9543 ft | 257 kts | 81° |
| 2026-05-05 00:41 | 43.14213 | -80.20485 | 9672 ft | 248 kts | 51° |
| 2026-05-05 00:42 | 43.15303 | -80.18725 | 9924 ft | 240 kts | 45° |
| 2026-05-05 00:42 | 43.16386 | -80.17031 | 10178 ft | 237 kts | 48° |
| 2026-05-05 00:42 | 43.17224 | -80.15075 | 10434 ft | 239 kts | 60° |
| 2026-05-05 00:42 | 43.17951 | -80.13028 | 10697 ft | 239 kts | 61° |
| 2026-05-05 00:43 | 43.18731 | -80.11018 | 10962 ft | 239 kts | 56° |
| 2026-05-05 00:43 | 43.19597 | -80.09021 | 11025 ft | 249 kts | 55° |
| 2026-05-05 00:43 | 43.20498 | -80.06942 | 11038 ft | 257 kts | 56° |
| 2026-05-05 00:43 | 43.21403 | -80.04799 | 11037 ft | 261 kts | 57° |
| 2026-05-05 00:44 | 43.22315 | -80.02634 | 11032 ft | 263 kts | 57° |
| 2026-05-05 00:44 | 43.23232 | -80.00465 | 11036 ft | 264 kts | 57° |
| 2026-05-05 00:44 | 43.24154 | -79.98288 | 11034 ft | 264 kts | 57° |
| 2026-05-05 00:44 | 43.25080 | -79.96097 | 11032 ft | 265 kts | 57° |
| 2026-05-05 00:45 | 43.26005 | -79.93907 | 11039 ft | 266 kts | 57° |
| 2026-05-05 00:45 | 43.26916 | -79.91747 | 11034 ft | 263 kts | 57° |
| 2026-05-05 00:45 | 43.27833 | -79.89573 | 11035 ft | 262 kts | 57° |
| 2026-05-05 00:45 | 43.28744 | -79.87412 | 11033 ft | 262 kts | 57° |
| 2026-05-05 00:46 | 43.29652 | -79.85257 | 11030 ft | 261 kts | 57° |
| 2026-05-05 00:46 | 43.30558 | -79.83103 | 11027 ft | 260 kts | 57° |
| 2026-05-05 00:46 | 43.31463 | -79.80952 | 11027 ft | 260 kts | 57° |
| 2026-05-05 00:46 | 43.32364 | -79.78805 | 11017 ft | 259 kts | 57° |
| 2026-05-05 00:47 | 43.33267 | -79.76655 | 11021 ft | 260 kts | 57° |
| 2026-05-05 00:47 | 43.34171 | -79.74502 | 11022 ft | 260 kts | 57° |
| 2026-05-05 00:47 | 43.35074 | -79.72348 | 11019 ft | 260 kts | 57° |
| 2026-05-05 00:47 | 43.35978 | -79.70189 | 11021 ft | 260 kts | 57° |
| 2026-05-05 00:48 | 43.36880 | -79.68034 | 11031 ft | 260 kts | 57° |
| 2026-05-05 00:48 | 43.37780 | -79.65882 | 11029 ft | 260 kts | 57° |
| 2026-05-05 00:48 | 43.38679 | -79.63730 | 11031 ft | 259 kts | 57° |
| 2026-05-05 00:48 | 43.39577 | -79.61581 | 11028 ft | 259 kts | 57° |
| 2026-05-05 00:49 | 43.40474 | -79.59432 | 11034 ft | 259 kts | 57° |
| 2026-05-05 00:49 | 43.41372 | -79.57279 | 11037 ft | 259 kts | 57° |
| 2026-05-05 00:49 | 43.42266 | -79.55131 | 11037 ft | 259 kts | 57° |
| 2026-05-05 00:49 | 43.43161 | -79.52983 | 11034 ft | 259 kts | 57° |
| 2026-05-05 00:50 | 43.44056 | -79.50832 | 11034 ft | 259 kts | 57° |
| 2026-05-05 00:50 | 43.44951 | -79.48681 | 11033 ft | 259 kts | 57° |
| 2026-05-05 00:50 | 43.45844 | -79.46529 | 11041 ft | 259 kts | 57° |
| 2026-05-05 00:50 | 43.46738 | -79.44378 | 11037 ft | 259 kts | 57° |
| 2026-05-05 00:51 | 43.47634 | -79.42217 | 11030 ft | 259 kts | 57° |
| 2026-05-05 00:51 | 43.48528 | -79.40061 | 11029 ft | 259 kts | 57° |
| 2026-05-05 00:51 | 43.49409 | -79.37933 | 11026 ft | 259 kts | 58° |
| 2026-05-05 00:51 | 43.50303 | -79.35774 | 11023 ft | 260 kts | 58° |
| 2026-05-05 00:52 | 43.51196 | -79.33616 | 11023 ft | 259 kts | 57° |
| 2026-05-05 00:52 | 43.52295 | -79.31679 | 11024 ft | 254 kts | 37° |
| 2026-05-05 00:52 | 43.53675 | -79.30190 | 11034 ft | 251 kts | 31° |
| 2026-05-05 00:52 | 43.55072 | -79.28741 | 11041 ft | 251 kts | 32° |
| 2026-05-05 00:53 | 43.56466 | -79.27284 | 11038 ft | 251 kts | 32° |
| 2026-05-05 00:53 | 43.57856 | -79.25831 | 11043 ft | 251 kts | 32° |
| 2026-05-05 00:53 | 43.59252 | -79.24375 | 11043 ft | 251 kts | 32° |
| 2026-05-05 00:53 | 43.60644 | -79.22920 | 11024 ft | 251 kts | 32° |
| 2026-05-05 00:54 | 43.62027 | -79.21471 | 11018 ft | 238 kts | 32° |
| 2026-05-05 00:54 | 43.63235 | -79.20187 | 10810 ft | 204 kts | 31° |
| 2026-05-05 00:54 | 43.64349 | -79.19033 | 10591 ft | 199 kts | 30° |
| 2026-05-05 00:54 | 43.65454 | -79.17893 | 10378 ft | 200 kts | 31° |
| 2026-05-05 00:55 | 43.66604 | -79.16694 | 10162 ft | 214 kts | 32° |
| 2026-05-05 00:55 | 43.67819 | -79.15418 | 9890 ft | 221 kts | 33° |
| 2026-05-05 00:55 | 43.69028 | -79.14134 | 9611 ft | 217 kts | 32° |
| 2026-05-05 00:55 | 43.70231 | -79.12879 | 9306 ft | 216 kts | 32° |
| 2026-05-05 00:56 | 43.71425 | -79.11629 | 9000 ft | 215 kts | 33° |
| 2026-05-05 00:56 | 43.72611 | -79.10383 | 8693 ft | 214 kts | 33° |
| 2026-05-05 00:56 | 43.73776 | -79.09158 | 8390 ft | 213 kts | 33° |
| 2026-05-05 00:56 | 43.74954 | -79.07921 | 8083 ft | 212 kts | 33° |
| 2026-05-05 00:57 | 43.76088 | -79.06611 | 7779 ft | 213 kts | 40° |
| 2026-05-05 00:57 | 43.77163 | -79.05210 | 7463 ft | 212 kts | 40° |
| 2026-05-05 00:57 | 43.78239 | -79.03803 | 7166 ft | 213 kts | 40° |
| 2026-05-05 00:57 | 43.79322 | -79.02395 | 6871 ft | 213 kts | 40° |
| 2026-05-05 00:58 | 43.80404 | -79.00993 | 6580 ft | 213 kts | 40° |
| 2026-05-05 00:58 | 43.81485 | -78.99597 | 6288 ft | 212 kts | 40° |
| 2026-05-05 00:58 | 43.82569 | -78.98209 | 5996 ft | 212 kts | 40° |
| 2026-05-05 00:58 | 43.83656 | -78.96819 | 5692 ft | 213 kts | 40° |
| 2026-05-05 00:59 | 43.84742 | -78.95432 | 5385 ft | 212 kts | 40° |
| 2026-05-05 00:59 | 43.85827 | -78.94048 | 5086 ft | 212 kts | 40° |
| 2026-05-05 00:59 | 43.86891 | -78.92640 | 4789 ft | 212 kts | 46° |
| 2026-05-05 00:59 | 43.87850 | -78.91086 | 4494 ft | 212 kts | 50° |
| 2026-05-05 01:00 | 43.88802 | -78.89514 | 4194 ft | 213 kts | 50° |
| 2026-05-05 01:00 | 43.89750 | -78.87952 | 4030 ft | 213 kts | 49° |
| 2026-05-05 01:00 | 43.90748 | -78.86307 | 4034 ft | 231 kts | 50° |
| 2026-05-05 01:00 | 43.91446 | -78.85170 | 4036 ft | 235 kts | 49° |
| 2026-05-05 01:01 | 43.92507 | -78.83425 | 4033 ft | 240 kts | 49° |
| 2026-05-05 01:01 | 43.93589 | -78.81643 | 4034 ft | 242 kts | 50° |
| 2026-05-05 01:01 | 43.94685 | -78.79854 | 4034 ft | 244 kts | 49° |
| 2026-05-05 01:01 | 43.95766 | -78.78079 | 4030 ft | 233 kts | 50° |
| 2026-05-05 01:02 | 43.96798 | -78.76371 | 4025 ft | 232 kts | 50° |
| 2026-05-05 01:02 | 43.97857 | -78.74632 | 4030 ft | 239 kts | 49° |
| 2026-05-05 01:02 | 43.98942 | -78.72861 | 4031 ft | 242 kts | 49° |
| 2026-05-05 01:02 | 44.00038 | -78.71073 | 4032 ft | 244 kts | 49° |
| 2026-05-05 01:03 | 44.01145 | -78.69283 | 4028 ft | 245 kts | 49° |
| 2026-05-05 01:03 | 44.02252 | -78.67481 | 4019 ft | 246 kts | 49° |
| 2026-05-05 01:03 | 44.03366 | -78.65667 | 4018 ft | 247 kts | 49° |
| 2026-05-05 01:03 | 44.04511 | -78.63900 | 4014 ft | 246 kts | 40° |
| 2026-05-05 01:04 | 44.05930 | -78.62921 | 3997 ft | 206 kts | 0° |
| 2026-05-05 01:04 | 44.07620 | -78.64166 | 4010 ft | 108 kts | 266° |
| 2026-05-05 01:04 | 44.07656 | -78.65203 | 3803 ft | 110 kts | 262° |
| 2026-05-05 01:05 | 44.07670 | -78.66346 | 3689 ft | 135 kts | 261° |
| 2026-05-05 01:05 | 44.07646 | -78.67786 | 3571 ft | 160 kts | 261° |
| 2026-05-05 01:05 | 44.07611 | -78.69392 | 3442 ft | 172 kts | 261° |
| 2026-05-05 01:05 | 44.07572 | -78.71092 | 3297 ft | 179 kts | 261° |
| 2026-05-05 01:06 | 44.07553 | -78.72838 | 3145 ft | 183 kts | 261° |
| 2026-05-05 01:06 | 44.07327 | -78.74522 | 3024 ft | 173 kts | 237° |
| 2026-05-05 01:06 | 44.06506 | -78.75678 | 3029 ft | 167 kts | 218° |
| 2026-05-05 01:06 | 44.05560 | -78.76603 | 3014 ft | 165 kts | 218° |
| 2026-05-05 01:07 | 44.04698 | -78.77429 | 3013 ft | 145 kts | 218° |
| 2026-05-05 01:07 | 44.03892 | -78.78210 | 3019 ft | 140 kts | 218° |
| 2026-05-05 01:07 | 44.03083 | -78.78990 | 2926 ft | 144 kts | 218° |
| 2026-05-05 01:07 | 44.02238 | -78.79809 | 2738 ft | 152 kts | 217° |
| 2026-05-05 01:08 | 44.01354 | -78.80668 | 2532 ft | 157 kts | 216° |
| 2026-05-05 01:08 | 44.00448 | -78.81545 | 2325 ft | 160 kts | 217° |
| 2026-05-05 01:08 | 43.99578 | -78.82391 | 2113 ft | 138 kts | 217° |
| 2026-05-05 01:08 | 43.98852 | -78.83094 | 1935 ft | 119 kts | 216° |
| 2026-05-05 01:09 | 43.98197 | -78.83728 | 1779 ft | 114 kts | 215° |
| 2026-05-05 01:09 | 43.97555 | -78.84350 | 1636 ft | 105 kts | 217° |
| 2026-05-05 01:09 | 43.96979 | -78.84915 | 1511 ft | 99 kts | 217° |
| 2026-05-05 01:09 | 43.96457 | -78.85428 | 1372 ft | 89 kts | 214° |
| 2026-05-05 01:10 | 43.95922 | -78.85935 | 1266 ft | 93 kts | 215° |
| 2026-05-05 01:10 | 43.95369 | -78.86475 | 1145 ft | 103 kts | 216° |
| 2026-05-05 01:10 | 43.94783 | -78.87021 | 990 ft | 101 kts | 216° |
| 2026-05-05 01:10 | 43.94235 | -78.87568 | 867 ft | 90 kts | 219° |
| 2026-05-05 01:11 | 43.93725 | -78.88069 | 754 ft | 91 kts | 216° |
| 2026-05-05 01:11 | 43.93172 | -78.88588 | 636 ft | 98 kts | 214° |
| 2026-05-05 01:11 | 43.92601 | -78.89139 | 488 ft | 96 kts | 213° |
| 2026-05-05 01:11 | 43.92188 | -78.89538 | 457 ft | 36 kts | 213° |
| 2026-05-05 01:12 | 43.92026 | -78.89693 | 450 ft | 19 kts | 217° |
| 2026-05-05 01:12 | 43.92042 | -78.89780 | 449 ft | 11 kts | 333° |
| 2026-05-05 01:12 | 43.92053 | -78.89787 | 449 ft | 0 kts | 334° |
| 2026-05-05 01:12 | 43.92054 | -78.89788 | 450 ft | 2 kts | 335° |
| 2026-05-05 01:13 | 43.92096 | -78.89817 | 451 ft | 8 kts | 333° |
| 2026-05-05 01:13 | 43.92151 | -78.89855 | 454 ft | 9 kts | 334° |
| 2026-05-05 01:13 | 43.92247 | -78.89922 | 457 ft | 17 kts | 333° |
| 2026-05-05 01:13 | 43.92340 | -78.89952 | 459 ft | 12 kts | 30° |
| 2026-05-05 01:14 | 43.92408 | -78.89885 | 457 ft | 13 kts | 75° |
| 2026-05-05 01:14 | 43.92435 | -78.89764 | 457 ft | 14 kts | 70° |
| 2026-05-05 01:14 | 43.92473 | -78.89619 | 457 ft | 15 kts | 71° |
| 2026-05-05 01:14 | 43.92503 | -78.89493 | 458 ft | 12 kts | 72° |
| 2026-05-05 01:15 | 43.92533 | -78.89427 | 460 ft | 7 kts | 343° |
| 2026-05-05 01:15 | 43.92588 | -78.89454 | 460 ft | 10 kts | 333° |
| 2026-05-05 01:15 | 43.92628 | -78.89526 | 460 ft | 12 kts | 310° |
| 2026-05-05 01:15 | 43.92673 | -78.89588 | 460 ft | 5 kts | 230° |
| 2026-05-05 01:16 | 43.92668 | -78.89583 | 460 ft | 0 kts | 72° |